createdAt,value
2018-12-04T00:00:50.674Z,9.72
2018-12-04T00:01:50.652Z,9.57
2018-12-04T00:02:50.649Z,9.65
2018-12-04T00:03:50.647Z,9.61
2018-12-04T00:04:50.659Z,9.71
2018-12-04T00:05:50.659Z,9.72
2018-12-04T00:06:50.656Z,9.71
2018-12-04T00:07:50.651Z,9.60
2018-12-04T00:08:50.662Z,9.72
2018-12-04T00:09:50.665Z,9.69
2018-12-04T00:10:50.660Z,9.71
2018-12-04T00:11:50.650Z,9.72
2018-12-04T00:12:50.646Z,9.68
2018-12-04T00:13:50.645Z,9.61
2018-12-04T00:14:50.643Z,9.74
2018-12-04T00:15:50.653Z,9.68
2018-12-04T00:16:50.656Z,9.60
2018-12-04T00:17:50.651Z,9.76
2018-12-04T00:18:50.651Z,9.75
2018-12-04T00:19:50.659Z,9.68
2018-12-04T00:20:50.651Z,9.60
2018-12-04T00:21:50.639Z,9.60
2018-12-04T00:22:50.651Z,9.60
2018-12-04T00:23:50.656Z,9.65
2018-12-04T00:24:50.648Z,9.61
2018-12-04T00:25:50.648Z,9.58
2018-12-04T00:26:50.645Z,9.48
2018-12-04T00:27:50.651Z,9.50
2018-12-04T00:28:50.656Z,9.58
2018-12-04T00:29:50.645Z,9.64
2018-12-04T00:30:50.632Z,9.65
2018-12-04T00:31:50.664Z,9.60
2018-12-04T00:32:50.702Z,9.74
2018-12-04T00:33:50.643Z,9.71
2018-12-04T00:34:50.641Z,9.69
2018-12-04T00:35:50.659Z,9.61
2018-12-04T00:36:50.664Z,9.65
2018-12-04T00:37:50.639Z,9.68
2018-12-04T00:38:50.662Z,9.60
2018-12-04T00:39:50.644Z,9.60
2018-12-04T00:40:50.658Z,9.60
2018-12-04T00:41:50.661Z,9.74
2018-12-04T00:42:50.636Z,9.72
2018-12-04T00:43:50.638Z,9.72
2018-12-04T00:44:50.654Z,9.69
2018-12-04T00:45:50.636Z,9.72
2018-12-04T00:46:50.664Z,9.60
2018-12-04T00:47:50.629Z,9.61
2018-12-04T00:48:50.641Z,9.58
2018-12-04T00:49:50.626Z,9.58
2018-12-04T00:50:50.646Z,9.64
2018-12-04T00:51:50.648Z,9.64
2018-12-04T00:52:50.642Z,9.64
2018-12-04T00:53:50.656Z,9.47
2018-12-04T00:54:50.647Z,9.58
2018-12-04T00:55:50.625Z,9.60
2018-12-04T00:56:50.624Z,9.57
2018-12-04T00:57:50.628Z,9.60
2018-12-04T00:58:50.640Z,9.51
2018-12-04T00:59:50.624Z,9.54
2018-12-04T01:00:50.624Z,9.54
2018-12-04T01:01:50.623Z,9.47
2018-12-04T01:02:50.631Z,9.51
2018-12-04T01:03:50.620Z,9.46
2018-12-04T01:04:50.630Z,9.53
2018-12-04T01:05:50.621Z,9.51
2018-12-04T01:06:50.620Z,9.50
2018-12-04T01:07:50.636Z,9.48
2018-12-04T01:08:50.615Z,9.51
2018-12-04T01:09:50.649Z,9.50
2018-12-04T01:10:50.632Z,9.48
2018-12-04T01:11:50.620Z,9.46
2018-12-04T01:12:50.633Z,9.48
2018-12-04T01:13:50.625Z,9.43
2018-12-04T01:14:50.618Z,9.46
2018-12-04T01:15:50.620Z,9.58
2018-12-04T01:16:50.622Z,9.48
2018-12-04T01:17:50.629Z,9.53
2018-12-04T01:18:50.624Z,9.47
2018-12-04T01:19:50.622Z,9.46
2018-12-04T01:20:50.637Z,9.43
2018-12-04T01:21:50.612Z,9.47
2018-12-04T01:22:50.621Z,9.39
2018-12-04T01:23:50.609Z,9.39
2018-12-04T01:24:50.609Z,9.46
2018-12-04T01:25:50.631Z,9.38
2018-12-04T01:26:50.633Z,9.43
2018-12-04T01:27:50.623Z,9.46
2018-12-04T01:28:50.619Z,9.39
2018-12-04T01:29:50.611Z,9.29
2018-12-04T01:30:50.613Z,9.33
2018-12-04T01:31:50.603Z,9.35
2018-12-04T01:32:50.611Z,9.33
2018-12-04T01:33:50.614Z,9.32
2018-12-04T01:34:50.600Z,9.29
2018-12-04T01:35:50.625Z,9.32
2018-12-04T01:36:50.615Z,9.21
2018-12-04T01:37:50.632Z,9.31
2018-12-04T01:38:50.939Z,9.24
2018-12-04T01:39:51.071Z,9.31
2018-12-04T01:40:50.636Z,9.36
2018-12-04T01:41:51.533Z,9.33
2018-12-04T01:42:50.612Z,9.28
2018-12-04T01:43:50.635Z,9.33
2018-12-04T01:44:51.141Z,9.32
2018-12-04T01:45:50.653Z,9.28
2018-12-04T01:46:50.618Z,9.26
2018-12-04T01:47:50.640Z,9.20
2018-12-04T01:48:50.592Z,9.26
2018-12-04T01:49:50.591Z,9.38
2018-12-04T01:50:50.623Z,9.35
2018-12-04T01:51:50.610Z,9.35
2018-12-04T01:52:50.605Z,9.35
2018-12-04T01:53:50.590Z,9.32
2018-12-04T01:54:50.617Z,9.46
2018-12-04T01:55:50.607Z,9.35
2018-12-04T01:56:50.586Z,9.32
2018-12-04T01:57:50.615Z,9.32
2018-12-04T01:58:50.600Z,9.43
2018-12-04T01:59:50.600Z,9.47
2018-12-04T02:00:50.596Z,9.46
2018-12-04T02:01:50.590Z,9.43
2018-12-04T02:02:50.597Z,9.46
2018-12-04T02:03:50.621Z,9.36
2018-12-04T02:04:50.594Z,9.47
2018-12-04T02:05:50.604Z,9.50
2018-12-04T02:06:50.581Z,9.42
2018-12-04T02:07:50.601Z,9.46
2018-12-04T02:08:50.602Z,9.42
2018-12-04T02:09:50.597Z,9.40
2018-12-04T02:10:50.612Z,9.46
2018-12-04T02:11:50.608Z,9.36
2018-12-04T02:12:50.584Z,9.47
2018-12-04T02:13:50.588Z,9.46
2018-12-04T02:14:50.595Z,9.43
2018-12-04T02:15:50.572Z,9.46
2018-12-04T02:16:50.596Z,9.43
2018-12-04T02:17:50.579Z,9.51
2018-12-04T02:18:50.583Z,9.46
2018-12-04T02:19:50.575Z,9.51
2018-12-04T02:20:50.593Z,9.42
2018-12-04T02:21:50.578Z,9.39
2018-12-04T02:22:50.594Z,9.48
2018-12-04T02:23:50.599Z,9.42
2018-12-04T02:24:50.601Z,9.43
2018-12-04T02:25:50.572Z,9.40
2018-12-04T02:26:50.583Z,9.47
2018-12-04T02:27:50.577Z,9.50
2018-12-04T02:28:50.569Z,9.47
2018-12-04T02:29:50.570Z,9.47
2018-12-04T02:30:50.567Z,9.64
2018-12-04T02:31:50.576Z,9.58
2018-12-04T02:32:50.561Z,9.51
2018-12-04T02:33:50.562Z,9.56
2018-12-04T02:34:50.588Z,9.50
2018-12-04T02:35:50.574Z,9.50
2018-12-04T02:36:50.583Z,9.47
2018-12-04T02:37:50.596Z,9.42
2018-12-04T02:38:50.581Z,9.48
2018-12-04T02:39:50.575Z,9.46
2018-12-04T02:40:50.582Z,9.39
2018-12-04T02:41:50.577Z,9.40
2018-12-04T02:42:50.577Z,9.42
2018-12-04T02:43:50.560Z,9.43
2018-12-04T02:44:50.560Z,9.46
2018-12-04T02:45:50.561Z,9.38
2018-12-04T02:46:50.557Z,9.40
2018-12-04T02:47:50.557Z,9.26
2018-12-04T02:48:50.591Z,9.36
2018-12-04T02:49:50.559Z,9.31
2018-12-04T02:50:50.583Z,9.32
2018-12-04T02:51:50.561Z,9.32
2018-12-04T02:52:50.564Z,9.32
2018-12-04T02:53:50.578Z,9.35
2018-12-04T02:54:50.556Z,9.46
2018-12-04T02:55:50.563Z,9.35
2018-12-04T02:56:50.550Z,9.35
2018-12-04T02:57:50.571Z,9.40
2018-12-04T02:58:50.555Z,9.29
2018-12-04T02:59:50.558Z,9.40
2018-12-04T03:00:50.575Z,9.33
2018-12-04T03:01:50.544Z,9.32
2018-12-04T03:02:50.551Z,9.32
2018-12-04T03:03:50.571Z,9.32
2018-12-04T03:04:50.558Z,9.35
2018-12-04T03:05:50.553Z,9.35
2018-12-04T03:06:50.544Z,9.33
2018-12-04T03:07:50.558Z,9.31
2018-12-04T03:08:50.558Z,9.26
2018-12-04T03:09:50.557Z,9.24
2018-12-04T03:10:50.540Z,9.33
2018-12-04T03:11:50.560Z,9.21
2018-12-04T03:12:50.556Z,9.21
2018-12-04T03:13:50.558Z,9.29
2018-12-04T03:14:50.555Z,9.29
2018-12-04T03:15:50.547Z,9.26
2018-12-04T03:16:50.538Z,9.31
2018-12-04T03:17:50.539Z,9.21
2018-12-04T03:18:50.542Z,9.15
2018-12-04T03:19:50.553Z,9.15
2018-12-04T03:20:52.466Z,9.31
2018-12-04T03:21:50.565Z,9.26
2018-12-04T03:22:50.537Z,9.33
2018-12-04T03:23:50.538Z,9.31
2018-12-04T03:24:50.576Z,9.29
2018-12-04T03:25:50.537Z,9.40
2018-12-04T03:26:50.552Z,9.46
2018-12-04T03:27:50.537Z,9.46
2018-12-04T03:28:50.537Z,9.53
2018-12-04T03:29:50.539Z,9.47
2018-12-04T03:30:50.552Z,9.43
2018-12-04T03:31:50.543Z,9.46
2018-12-04T03:32:50.535Z,9.53
2018-12-04T03:33:50.524Z,9.40
2018-12-04T03:34:50.537Z,9.35
2018-12-04T03:35:50.542Z,9.43
2018-12-04T03:36:50.538Z,9.42
2018-12-04T03:37:50.548Z,9.42
2018-12-04T03:38:50.523Z,9.31
2018-12-04T03:39:50.539Z,9.35
2018-12-04T03:40:50.553Z,9.32
2018-12-04T03:41:50.534Z,9.29
2018-12-04T03:42:50.552Z,9.26
2018-12-04T03:43:50.528Z,9.29
2018-12-04T03:44:50.544Z,9.33
2018-12-04T03:45:50.527Z,9.31
2018-12-04T03:46:50.521Z,9.35
2018-12-04T03:47:50.534Z,9.29
2018-12-04T03:48:50.528Z,9.28
2018-12-04T03:49:50.566Z,9.39
2018-12-04T03:50:50.534Z,9.32
2018-12-04T03:51:50.567Z,9.38
2018-12-04T03:52:50.528Z,9.36
2018-12-04T03:53:50.536Z,9.33
2018-12-04T03:54:50.532Z,9.39
2018-12-04T03:55:50.512Z,9.26
2018-12-04T03:56:50.542Z,9.38
2018-12-04T03:57:50.521Z,9.43
2018-12-04T03:58:50.528Z,9.56
2018-12-04T03:59:50.513Z,9.46
2018-12-04T04:00:50.512Z,9.32
2018-12-04T04:01:50.518Z,9.36
2018-12-04T04:02:50.521Z,9.21
2018-12-04T04:03:50.517Z,9.20
2018-12-04T04:04:50.529Z,9.23
2018-12-04T04:05:50.508Z,9.18
2018-12-04T04:06:50.532Z,9.21
2018-12-04T04:07:50.518Z,9.18
2018-12-04T04:08:50.542Z,9.21
2018-12-04T04:09:50.506Z,9.18
2018-12-04T04:10:50.513Z,9.17
2018-12-04T04:11:50.519Z,9.11
2018-12-04T04:12:50.519Z,9.08
2018-12-04T04:13:50.511Z,9.05
2018-12-04T04:14:50.513Z,9.04
2018-12-04T04:15:50.510Z,9.01
2018-12-04T04:16:50.507Z,9.01
2018-12-04T04:17:50.505Z,9.08
2018-12-04T04:18:50.523Z,8.99
2018-12-04T04:19:50.533Z,8.99
2018-12-04T04:20:50.510Z,8.96
2018-12-04T04:21:50.514Z,8.92
2018-12-04T04:22:50.506Z,8.96
2018-12-04T04:23:50.507Z,8.96
2018-12-04T04:24:50.506Z,8.94
2018-12-04T04:25:50.508Z,8.89
2018-12-04T04:26:50.519Z,8.89
2018-12-04T04:27:50.493Z,8.83
2018-12-04T04:28:50.503Z,8.83
2018-12-04T04:29:50.503Z,8.73
2018-12-04T04:30:50.505Z,8.77
2018-12-04T04:31:50.514Z,8.71
2018-12-04T04:32:50.498Z,8.61
2018-12-04T04:33:50.489Z,8.70
2018-12-04T04:34:50.504Z,8.76
2018-12-04T04:35:50.489Z,8.77
2018-12-04T04:36:50.493Z,8.55
2018-12-04T04:37:50.496Z,8.59
2018-12-04T04:38:50.492Z,8.61
2018-12-04T04:39:50.497Z,8.58
2018-12-04T04:40:50.488Z,8.53
2018-12-04T04:41:50.484Z,8.53
2018-12-04T04:42:50.492Z,8.43
2018-12-04T04:43:50.495Z,8.44
2018-12-04T04:44:50.519Z,8.50
2018-12-04T04:45:50.495Z,8.37
2018-12-04T04:46:50.509Z,8.33
2018-12-04T04:47:50.516Z,8.30
2018-12-04T04:48:50.508Z,8.25
2018-12-04T04:49:50.485Z,8.19
2018-12-04T04:50:50.479Z,8.20
2018-12-04T04:51:50.486Z,8.23
2018-12-04T04:52:50.476Z,8.12
2018-12-04T04:53:50.475Z,8.18
2018-12-04T04:54:50.479Z,8.23
2018-12-04T04:55:50.480Z,8.18
2018-12-04T04:56:50.488Z,8.22
2018-12-04T04:57:50.478Z,8.20
2018-12-04T04:58:50.472Z,8.04
2018-12-04T04:59:50.482Z,8.05
2018-12-04T05:00:50.472Z,8.05
2018-12-04T05:01:50.467Z,8.02
2018-12-04T05:02:50.472Z,8.05
2018-12-04T05:03:50.478Z,8.10
2018-12-04T05:04:50.467Z,8.08
2018-12-04T05:05:50.469Z,8.08
2018-12-04T05:06:50.468Z,8.02
2018-12-04T05:07:50.477Z,8.01
2018-12-04T05:08:50.471Z,7.97
2018-12-04T05:09:50.474Z,7.89
2018-12-04T05:10:50.520Z,7.89
2018-12-04T05:11:50.470Z,7.82
2018-12-04T05:12:50.465Z,7.83
2018-12-04T05:13:50.481Z,7.83
2018-12-04T05:14:50.473Z,7.83
2018-12-04T05:15:50.473Z,7.82
2018-12-04T05:16:50.447Z,7.85
2018-12-04T05:17:50.452Z,7.90
2018-12-04T05:18:50.446Z,7.83
2018-12-04T05:19:50.457Z,7.74
2018-12-04T05:20:50.472Z,7.83
2018-12-04T05:21:50.461Z,7.83
2018-12-04T05:22:50.458Z,7.77
2018-12-04T05:23:50.443Z,7.82
2018-12-04T05:24:50.468Z,7.71
2018-12-04T05:25:50.440Z,7.75
2018-12-04T05:26:50.441Z,7.83
2018-12-04T05:27:50.459Z,7.72
2018-12-04T05:28:50.453Z,7.71
2018-12-04T05:29:50.432Z,7.71
2018-12-04T05:30:50.441Z,7.64
2018-12-04T05:31:50.455Z,7.60
2018-12-04T05:32:50.430Z,7.69
2018-12-04T05:33:50.447Z,7.68
2018-12-04T05:34:50.445Z,7.57
2018-12-04T05:35:50.422Z,7.61
2018-12-04T05:36:50.446Z,7.53
2018-12-04T05:37:50.436Z,7.57
2018-12-04T05:38:50.438Z,7.50
2018-12-04T05:39:50.424Z,7.49
2018-12-04T05:40:50.446Z,7.48
2018-12-04T05:41:50.453Z,7.46
2018-12-04T05:42:50.415Z,7.49
2018-12-04T05:43:50.423Z,7.46
2018-12-04T05:44:50.429Z,7.48
2018-12-04T05:45:50.425Z,7.43
2018-12-04T05:46:50.429Z,7.42
2018-12-04T05:47:50.412Z,7.48
2018-12-04T05:48:50.451Z,7.46
2018-12-04T05:49:50.411Z,7.48
2018-12-04T05:50:50.429Z,7.46
2018-12-04T05:51:50.411Z,7.43
2018-12-04T05:52:50.413Z,7.43
2018-12-04T05:53:50.407Z,7.40
2018-12-04T05:54:50.428Z,7.45
2018-12-04T05:55:50.410Z,7.40
2018-12-04T05:56:50.405Z,7.37
2018-12-04T05:57:50.413Z,7.40
2018-12-04T05:58:50.406Z,7.39
2018-12-04T05:59:50.454Z,7.37
2018-12-04T06:00:50.393Z,7.48
2018-12-04T06:01:50.414Z,7.37
2018-12-04T06:02:50.414Z,7.39
2018-12-04T06:03:50.434Z,7.37
2018-12-04T06:04:50.412Z,7.42
2018-12-04T06:05:50.401Z,7.39
2018-12-04T06:06:50.408Z,7.37
2018-12-04T06:07:50.392Z,7.35
2018-12-04T06:08:50.392Z,7.34
2018-12-04T06:09:50.417Z,7.35
2018-12-04T06:10:50.393Z,7.27
2018-12-04T06:11:50.384Z,7.27
2018-12-04T06:12:50.385Z,7.27
2018-12-04T06:13:50.386Z,7.25
2018-12-04T06:14:50.378Z,7.24
2018-12-04T06:15:50.381Z,7.24
2018-12-04T06:16:50.382Z,7.23
2018-12-04T06:17:50.396Z,7.23
2018-12-04T06:18:50.388Z,7.21
2018-12-04T06:19:50.392Z,7.25
2018-12-04T06:20:50.381Z,7.12
2018-12-04T06:21:50.385Z,7.20
2018-12-04T06:22:50.405Z,7.20
2018-12-04T06:23:50.391Z,7.25
2018-12-04T06:24:50.415Z,7.21
2018-12-04T06:25:50.381Z,7.34
2018-12-04T06:26:50.391Z,7.35
2018-12-04T06:27:50.363Z,7.32
2018-12-04T06:28:50.376Z,7.37
2018-12-04T06:29:50.360Z,7.32
2018-12-04T06:30:50.357Z,7.34
2018-12-04T06:31:50.386Z,7.27
2018-12-04T06:32:50.357Z,7.35
2018-12-04T06:33:50.384Z,7.42
2018-12-04T06:34:50.354Z,7.34
2018-12-04T06:35:50.361Z,7.32
2018-12-04T06:36:50.345Z,7.35
2018-12-04T06:37:50.344Z,7.32
2018-12-04T06:38:50.371Z,7.30
2018-12-04T06:39:50.359Z,7.30
2018-12-04T06:40:50.355Z,7.37
2018-12-04T06:41:50.335Z,7.40
2018-12-04T06:42:50.349Z,7.35
2018-12-04T06:43:50.354Z,7.43
2018-12-04T06:44:50.344Z,7.40
2018-12-04T06:45:50.391Z,7.42
2018-12-04T06:46:50.332Z,7.45
2018-12-04T06:47:50.342Z,7.43
2018-12-04T06:48:50.346Z,7.39
2018-12-04T06:49:50.337Z,7.40
2018-12-04T06:50:50.323Z,7.48
2018-12-04T06:51:50.340Z,7.43
2018-12-04T06:52:50.332Z,7.39
2018-12-04T06:53:50.368Z,7.40
2018-12-04T06:54:50.317Z,7.34
2018-12-04T06:55:50.324Z,7.39
2018-12-04T06:56:50.322Z,7.40
2018-12-04T06:57:50.367Z,7.40
2018-12-04T06:58:50.326Z,7.37
2018-12-04T06:59:50.317Z,7.32
2018-12-04T07:00:50.334Z,7.24
2018-12-04T07:01:50.342Z,7.39
2018-12-04T07:02:50.316Z,7.31
2018-12-04T07:03:50.320Z,7.30
2018-12-04T07:04:50.310Z,7.30
2018-12-04T07:05:50.307Z,7.31
2018-12-04T07:06:50.310Z,7.30
2018-12-04T07:07:52.037Z,7.31
2018-12-04T07:08:50.301Z,7.23
2018-12-04T07:09:50.307Z,7.23
2018-12-04T07:10:50.321Z,7.23
2018-12-04T07:11:50.312Z,7.28
2018-12-04T07:12:50.313Z,7.25
2018-12-04T07:13:50.304Z,7.21
2018-12-04T07:14:50.345Z,7.24
2018-12-04T07:15:50.341Z,7.25
2018-12-04T07:16:50.454Z,7.24
2018-12-04T07:17:50.301Z,7.20
2018-12-04T07:18:50.299Z,7.32
2018-12-04T07:19:50.298Z,7.37
2018-12-04T07:20:50.309Z,7.17
2018-12-04T07:21:50.292Z,7.20
2018-12-04T07:22:50.307Z,7.13
2018-12-04T07:23:50.297Z,7.21
2018-12-04T07:24:50.304Z,7.21
2018-12-04T07:25:50.330Z,7.10
2018-12-04T07:26:50.325Z,7.21
2018-12-04T07:27:50.277Z,7.12
2018-12-04T07:28:50.286Z,7.15
2018-12-04T07:29:50.304Z,7.17
2018-12-04T07:30:50.285Z,7.09
2018-12-04T07:31:50.310Z,7.09
2018-12-04T07:32:50.293Z,6.97
2018-12-04T07:33:50.274Z,7.03
2018-12-04T07:34:50.283Z,7.17
2018-12-04T07:35:50.302Z,7.10
2018-12-04T07:36:50.290Z,7.09
2018-12-04T07:37:50.257Z,7.02
2018-12-04T07:38:50.291Z,7.05
2018-12-04T07:39:50.316Z,6.99
2018-12-04T07:40:50.264Z,7.05
2018-12-04T07:41:50.264Z,7.05
2018-12-04T07:42:50.270Z,6.98
2018-12-04T07:43:50.270Z,7.10
2018-12-04T07:44:50.265Z,7.17
2018-12-04T07:45:50.258Z,7.23
2018-12-04T07:46:50.257Z,7.24
2018-12-04T07:47:50.255Z,7.25
2018-12-04T07:48:50.275Z,7.39
2018-12-04T07:49:50.270Z,7.32
2018-12-04T07:50:50.253Z,7.39
2018-12-04T07:51:50.270Z,7.46
2018-12-04T07:52:50.285Z,7.45
2018-12-04T07:53:50.280Z,7.50
2018-12-04T07:54:50.287Z,7.42
2018-12-04T07:55:50.244Z,7.52
2018-12-04T07:56:50.253Z,7.43
2018-12-04T07:57:50.396Z,7.45
2018-12-04T07:58:50.250Z,7.43
2018-12-04T07:59:50.278Z,7.39
2018-12-04T08:00:50.271Z,7.42
2018-12-04T08:01:50.266Z,7.39
2018-12-04T08:02:50.234Z,7.39
2018-12-04T08:03:50.259Z,7.40
2018-12-04T08:04:50.229Z,7.43
2018-12-04T08:05:50.224Z,7.45
2018-12-04T08:06:50.238Z,7.48
2018-12-04T08:07:50.242Z,7.45
2018-12-04T08:08:50.237Z,7.42
2018-12-04T08:09:50.242Z,7.45
2018-12-04T08:10:51.065Z,7.34
2018-12-04T08:11:50.272Z,7.35
2018-12-04T08:12:51.537Z,7.37
2018-12-04T08:13:50.256Z,7.37
2018-12-04T08:14:50.228Z,7.42
2018-12-04T08:15:50.232Z,7.39
2018-12-04T08:16:50.247Z,7.48
2018-12-04T08:17:50.211Z,7.39
2018-12-04T08:18:50.231Z,7.43
2018-12-04T08:19:50.252Z,7.45
2018-12-04T08:20:50.224Z,7.50
2018-12-04T08:21:50.209Z,7.46
2018-12-04T08:22:50.220Z,7.60
2018-12-04T08:23:50.226Z,7.60
2018-12-04T08:24:50.233Z,7.71
2018-12-04T08:25:50.227Z,7.82
2018-12-04T08:26:50.234Z,7.77
2018-12-04T08:27:50.206Z,7.75
2018-12-04T08:28:50.227Z,7.83
2018-12-04T08:29:50.189Z,8.05
2018-12-04T08:30:50.190Z,8.41
2018-12-04T08:31:50.217Z,9.17
2018-12-04T08:32:50.189Z,9.50
2018-12-04T08:33:50.213Z,9.78
2018-12-04T08:34:50.276Z,9.94
2018-12-04T08:35:50.194Z,10.59
2018-12-04T08:36:50.194Z,11.07
2018-12-04T08:37:50.192Z,11.61
2018-12-04T08:38:50.192Z,11.67
2018-12-04T08:39:50.213Z,11.73
2018-12-04T08:40:50.191Z,11.64
2018-12-04T08:41:50.195Z,11.69
2018-12-04T08:42:50.195Z,11.33
2018-12-04T08:43:50.186Z,10.94
2018-12-04T08:44:50.200Z,10.99
2018-12-04T08:45:50.239Z,11.27
2018-12-04T08:46:50.322Z,11.55
2018-12-04T08:47:50.186Z,12.09
2018-12-04T08:48:50.194Z,12.42
2018-12-04T08:49:50.418Z,12.75
2018-12-04T08:50:50.253Z,13.04
2018-12-04T08:51:50.216Z,12.75
2018-12-04T08:52:50.214Z,12.74
2018-12-04T08:53:50.235Z,13.08
2018-12-04T08:54:50.237Z,13.04
2018-12-04T08:55:50.192Z,13.08
2018-12-04T08:56:50.208Z,13.29
2018-12-04T08:57:50.235Z,13.25
2018-12-04T08:58:50.203Z,13.33
2018-12-04T08:59:50.238Z,13.67
2018-12-04T09:00:50.207Z,13.84
2018-12-04T09:01:50.215Z,13.70
2018-12-04T09:02:50.212Z,13.49
2018-12-04T09:03:50.259Z,12.65
2018-12-04T09:04:50.211Z,12.42
2018-12-04T09:05:50.204Z,12.78
2018-12-04T09:06:50.280Z,13.19
2018-12-04T09:07:50.216Z,13.10
2018-12-04T09:08:50.312Z,13.01
2018-12-04T09:09:50.228Z,13.15
2018-12-04T09:10:50.229Z,13.41
2018-12-04T09:11:50.215Z,13.59
2018-12-04T09:12:50.229Z,13.33
2018-12-04T09:13:50.343Z,13.60
2018-12-04T09:14:50.254Z,13.81
2018-12-04T09:15:50.913Z,13.54
2018-12-04T09:16:50.291Z,13.25
2018-12-04T09:17:51.290Z,13.12
2018-12-04T09:18:51.059Z,13.26
2018-12-04T09:19:50.285Z,13.46
2018-12-04T09:20:50.245Z,13.39
2018-12-04T09:21:50.259Z,13.25
2018-12-04T09:22:50.308Z,13.22
2018-12-04T09:23:50.306Z,13.20
2018-12-04T09:24:50.271Z,13.48
2018-12-04T09:25:50.239Z,12.78
2018-12-04T09:26:50.277Z,12.47
2018-12-04T09:27:50.249Z,12.17
2018-12-04T09:28:50.286Z,11.82
2018-12-04T09:29:50.295Z,11.57
2018-12-04T09:30:50.239Z,11.25
2018-12-04T09:31:50.245Z,11.07
2018-12-04T09:32:50.244Z,10.71
2018-12-04T09:33:50.249Z,10.59
2018-12-04T09:34:50.252Z,10.26
2018-12-04T09:35:50.252Z,10.09
2018-12-04T09:36:50.249Z,10.15
2018-12-04T09:37:50.274Z,10.09
2018-12-04T09:38:50.251Z,10.01
2018-12-04T09:39:50.303Z,10.07
2018-12-04T09:40:50.261Z,9.93
2018-12-04T09:41:50.277Z,9.99
2018-12-04T09:42:50.279Z,9.86
2018-12-04T09:43:50.250Z,9.81
2018-12-04T09:44:50.269Z,9.74
2018-12-04T09:45:50.268Z,9.74
2018-12-04T09:46:50.331Z,9.83
2018-12-04T09:47:50.262Z,9.71
2018-12-04T09:48:50.257Z,9.86
2018-12-04T09:49:50.268Z,9.76
2018-12-04T09:50:50.264Z,9.86
2018-12-04T09:51:50.271Z,9.76
2018-12-04T09:52:50.282Z,9.78
2018-12-04T09:53:52.173Z,9.83
2018-12-04T09:54:50.560Z,10.17
2018-12-04T09:55:50.436Z,10.48
2018-12-04T09:56:50.346Z,10.96
2018-12-04T09:57:51.224Z,11.42
2018-12-04T09:58:50.362Z,11.91
2018-12-04T09:59:50.621Z,12.10
2018-12-04T10:00:50.349Z,11.95
2018-12-04T10:01:50.461Z,11.70
2018-12-04T10:02:50.271Z,11.22
2018-12-04T10:03:50.266Z,11.14
2018-12-04T10:04:50.564Z,11.47
2018-12-04T10:05:50.266Z,11.80
2018-12-04T10:06:50.275Z,11.94
2018-12-04T10:07:50.476Z,11.86
2018-12-04T10:08:50.724Z,11.95
2018-12-04T10:09:50.652Z,11.69
2018-12-04T10:10:51.285Z,11.62
2018-12-04T10:11:50.355Z,11.67
2018-12-04T10:12:50.523Z,12.16
2018-12-04T10:13:50.278Z,12.54
2018-12-04T10:14:50.285Z,12.79
2018-12-04T10:15:50.367Z,12.92
2018-12-04T10:16:50.326Z,12.92
2018-12-04T10:17:50.934Z,13.05
2018-12-04T10:18:50.309Z,12.53
2018-12-04T10:19:50.277Z,12.12
2018-12-04T10:20:50.330Z,12.39
2018-12-04T10:21:50.324Z,12.39
2018-12-04T10:22:50.283Z,12.54
2018-12-04T10:23:50.291Z,12.46
2018-12-04T10:24:50.299Z,12.87
2018-12-04T10:25:50.300Z,13.12
2018-12-04T10:26:50.287Z,13.48
2018-12-04T10:27:50.295Z,13.00
2018-12-04T10:28:50.305Z,12.95
2018-12-04T10:29:50.295Z,13.08
2018-12-04T10:30:50.311Z,13.14
2018-12-04T10:31:55.941Z,13.00
2018-12-04T10:32:50.358Z,12.74
2018-12-04T10:33:50.309Z,12.50
2018-12-04T10:34:50.303Z,12.38
2018-12-04T10:35:50.300Z,12.41
2018-12-04T10:36:50.330Z,12.47
2018-12-04T10:37:50.334Z,12.41
2018-12-04T10:38:50.311Z,12.34
2018-12-04T10:39:50.326Z,12.31
2018-12-04T10:40:50.347Z,12.24
2018-12-04T10:41:50.313Z,12.01
2018-12-04T10:42:52.071Z,12.01
2018-12-04T10:43:50.326Z,11.67
2018-12-04T10:44:50.326Z,11.67
2018-12-04T10:45:50.327Z,11.62
2018-12-04T10:46:50.318Z,12.13
2018-12-04T10:47:50.404Z,12.46
2018-12-04T10:48:50.324Z,12.78
2018-12-04T10:49:50.365Z,12.93
2018-12-04T10:50:50.395Z,12.93
2018-12-04T10:51:50.421Z,12.77
2018-12-04T10:52:50.341Z,12.86
2018-12-04T10:53:50.350Z,12.92
2018-12-04T10:54:50.360Z,12.93
2018-12-04T10:55:50.337Z,13.15
2018-12-04T10:56:50.345Z,13.39
2018-12-04T10:57:50.390Z,13.25
2018-12-04T10:58:50.343Z,13.46
2018-12-04T10:59:50.435Z,13.48
2018-12-04T11:00:50.342Z,13.32
2018-12-04T11:01:50.361Z,13.60
2018-12-04T11:02:50.369Z,13.81
2018-12-04T11:03:50.350Z,14.00
2018-12-04T11:04:50.351Z,14.32
2018-12-04T11:05:50.351Z,14.42
2018-12-04T11:06:50.438Z,14.21
2018-12-04T11:07:50.365Z,14.20
2018-12-04T11:08:50.364Z,14.32
2018-12-04T11:09:50.358Z,14.39
2018-12-04T11:10:50.372Z,14.43
2018-12-04T11:11:50.388Z,14.61
2018-12-04T11:12:50.369Z,14.84
2018-12-04T11:13:50.377Z,14.84
2018-12-04T11:14:50.403Z,14.61
2018-12-04T11:15:50.392Z,14.73
2018-12-04T11:16:50.379Z,14.37
2018-12-04T11:17:50.371Z,14.20
2018-12-04T11:18:51.387Z,14.10
2018-12-04T11:19:50.436Z,13.57
2018-12-04T11:20:50.384Z,13.55
2018-12-04T11:21:50.380Z,13.46
2018-12-04T11:22:50.398Z,13.62
2018-12-04T11:23:50.396Z,13.63
2018-12-04T11:24:50.403Z,13.19
2018-12-04T11:25:50.416Z,13.14
2018-12-04T11:26:50.427Z,12.92
2018-12-04T11:27:50.415Z,12.60
2018-12-04T11:28:50.473Z,12.35
2018-12-04T11:29:50.393Z,12.46
2018-12-04T11:30:50.404Z,12.42
2018-12-04T11:31:50.441Z,12.07
2018-12-04T11:32:50.402Z,11.78
2018-12-04T11:33:50.412Z,11.64
2018-12-04T11:34:50.399Z,11.62
2018-12-04T11:35:50.406Z,11.78
2018-12-04T11:36:50.442Z,11.69
2018-12-04T11:37:50.433Z,11.80
2018-12-04T11:38:50.429Z,11.96
2018-12-04T11:39:50.420Z,11.76
2018-12-04T11:40:50.407Z,11.64
2018-12-04T11:41:50.426Z,11.70
2018-12-04T11:42:50.422Z,11.60
2018-12-04T11:43:50.438Z,11.57
2018-12-04T11:44:50.425Z,11.51
2018-12-04T11:45:50.420Z,11.46
2018-12-04T11:46:50.427Z,11.86
2018-12-04T11:47:50.431Z,11.98
2018-12-04T11:48:50.448Z,12.12
2018-12-04T11:49:50.439Z,12.49
2018-12-04T11:50:50.444Z,12.72
2018-12-04T11:51:50.452Z,12.97
2018-12-04T11:52:50.456Z,12.97
2018-12-04T11:53:52.115Z,12.83
2018-12-04T11:54:50.440Z,12.52
2018-12-04T11:55:50.459Z,12.45
2018-12-04T11:56:50.439Z,12.38
2018-12-04T11:57:50.435Z,12.17
2018-12-04T11:58:50.468Z,12.05
2018-12-04T11:59:50.441Z,11.85
2018-12-04T12:00:50.463Z,11.80
2018-12-04T12:01:50.438Z,11.70
2018-12-04T12:02:50.454Z,11.64
2018-12-04T12:03:50.463Z,11.54
2018-12-04T12:04:50.463Z,11.43
2018-12-04T12:05:50.451Z,11.17
2018-12-04T12:06:50.473Z,11.37
2018-12-04T12:07:50.453Z,11.42
2018-12-04T12:08:50.480Z,11.55
2018-12-04T12:09:50.491Z,11.39
2018-12-04T12:10:50.461Z,11.65
2018-12-04T12:11:50.467Z,11.73
2018-12-04T12:12:50.601Z,11.78
2018-12-04T12:13:50.528Z,11.73
2018-12-04T12:14:50.502Z,11.35
2018-12-04T12:15:50.476Z,11.00
2018-12-04T12:16:50.462Z,10.67
2018-12-04T12:17:50.484Z,10.73
2018-12-04T12:18:50.465Z,10.51
2018-12-04T12:19:50.493Z,10.36
2018-12-04T12:20:50.463Z,10.26
2018-12-04T12:21:50.461Z,10.36
2018-12-04T12:22:50.465Z,10.29
2018-12-04T12:23:50.472Z,10.27
2018-12-04T12:24:50.467Z,10.25
2018-12-04T12:25:50.512Z,10.25
2018-12-04T12:26:50.493Z,9.96
2018-12-04T12:27:50.487Z,10.01
2018-12-04T12:28:50.490Z,10.09
2018-12-04T12:29:50.472Z,10.08
2018-12-04T12:30:50.468Z,10.02
2018-12-04T12:31:50.492Z,10.02
2018-12-04T12:32:50.490Z,9.96
2018-12-04T12:33:50.485Z,10.02
2018-12-04T12:34:50.487Z,9.93
2018-12-04T12:35:50.473Z,9.90
2018-12-04T12:36:50.508Z,9.89
2018-12-04T12:37:50.492Z,9.99
2018-12-04T12:38:50.492Z,10.05
2018-12-04T12:39:50.470Z,10.01
2018-12-04T12:40:50.484Z,10.01
2018-12-04T12:41:50.479Z,9.81
2018-12-04T12:42:50.489Z,10.04
2018-12-04T12:43:50.482Z,10.01
2018-12-04T12:44:50.482Z,10.17
2018-12-04T12:45:50.477Z,10.27
2018-12-04T12:46:50.479Z,10.38
2018-12-04T12:47:50.478Z,10.44
2018-12-04T12:48:50.505Z,10.40
2018-12-04T12:49:50.485Z,10.34
2018-12-04T12:50:50.483Z,10.47
2018-12-04T12:51:50.501Z,10.47
2018-12-04T12:52:50.477Z,10.47
2018-12-04T12:53:50.503Z,10.33
2018-12-04T12:54:50.513Z,10.22
2018-12-04T12:55:50.563Z,10.30
2018-12-04T12:56:50.495Z,10.18
2018-12-04T12:57:51.271Z,10.23
2018-12-04T12:58:50.475Z,10.15
2018-12-04T12:59:50.490Z,10.15
2018-12-04T13:00:50.484Z,10.18
2018-12-04T13:01:50.505Z,9.97
2018-12-04T13:02:50.484Z,9.89
2018-12-04T13:03:50.484Z,9.89
2018-12-04T13:04:50.488Z,9.79
2018-12-04T13:05:50.491Z,9.83
2018-12-04T13:06:50.500Z,9.89
2018-12-04T13:07:50.516Z,9.89
2018-12-04T13:08:50.476Z,9.94
2018-12-04T13:09:50.490Z,9.87
2018-12-04T13:10:50.499Z,9.83